sensor_id;sensor_type;location;lat;lon;timestamp;pressure;altitude;pressure_sealevel;temperature;humidity
50282;BME280;36176;51.506;10.272;2023-03-21T00:00:43;99626.03;;;8.08;84.11
50282;BME280;36176;51.506;10.272;2023-03-21T00:03:10;99618.91;;;8.10;83.78
50282;BME280;36176;51.506;10.272;2023-03-21T00:05:41;99617.91;;;8.15;84.00
50282;BME280;36176;51.506;10.272;2023-03-21T00:08:09;99617.78;;;8.18;83.83
50282;BME280;36176;51.506;10.272;2023-03-21T00:10:36;99616.84;;;8.19;83.80
50282;BME280;36176;51.506;10.272;2023-03-21T00:13:11;99608.09;;;8.18;83.76
50282;BME280;36176;51.506;10.272;2023-03-21T00:15:40;99614.34;;;8.16;84.29
50282;BME280;36176;51.506;10.272;2023-03-21T00:18:30;99617.78;;;8.18;83.92
50282;BME280;36176;51.506;10.272;2023-03-21T00:20:59;99604.56;;;8.19;83.40
50282;BME280;36176;51.506;10.272;2023-03-21T00:23:46;99606.22;;;8.22;83.50
50282;BME280;36176;51.506;10.272;2023-03-21T00:26:13;99604.38;;;8.24;83.34
50282;BME280;36176;51.506;10.272;2023-03-21T00:28:42;99609.56;;;8.27;83.31
50282;BME280;36176;51.506;10.272;2023-03-21T00:31:09;99600.63;;;8.31;83.14
50282;BME280;36176;51.506;10.272;2023-03-21T00:33:36;99604.03;;;8.33;82.25
50282;BME280;36176;51.506;10.272;2023-03-21T00:36:06;99604.91;;;8.34;82.29
50282;BME280;36176;51.506;10.272;2023-03-21T00:38:34;99606.69;;;8.33;82.83
50282;BME280;36176;51.506;10.272;2023-03-21T00:41:06;99604.03;;;8.33;82.86
50282;BME280;36176;51.506;10.272;2023-03-21T00:43:47;99593.56;;;8.31;82.92
50282;BME280;36176;51.506;10.272;2023-03-21T00:46:14;99589.34;;;8.26;83.02
50282;BME280;36176;51.506;10.272;2023-03-21T00:48:41;99594.72;;;8.23;83.40
50282;BME280;36176;51.506;10.272;2023-03-21T00:51:16;99591.28;;;8.21;84.06
50282;BME280;36176;51.506;10.272;2023-03-21T00:53:47;99579.00;;;8.20;84.33
50282;BME280;36176;51.506;10.272;2023-03-21T00:56:14;99578.19;;;8.18;84.16
50282;BME280;36176;51.506;10.272;2023-03-21T00:58:41;99581.59;;;8.21;83.72
50282;BME280;36176;51.506;10.272;2023-03-21T01:01:08;99586.69;;;8.26;83.58
50282;BME280;36176;51.506;10.272;2023-03-21T01:03:35;99577.75;;;8.30;83.86
50282;BME280;36176;51.506;10.272;2023-03-21T01:06:09;99580.34;;;8.31;84.01
50282;BME280;36176;51.506;10.272;2023-03-21T01:08:41;99588.44;;;8.27;83.71
50282;BME280;36176;51.506;10.272;2023-03-21T01:11:26;99577.50;;;8.13;85.47
50282;BME280;36176;51.506;10.272;2023-03-21T01:13:54;99575.16;;;8.05;85.24
50282;BME280;36176;51.506;10.272;2023-03-21T01:16:33;99576.13;;;8.02;85.97
50282;BME280;36176;51.506;10.272;2023-03-21T01:19:01;99575.31;;;8.00;86.69
50282;BME280;36176;51.506;10.272;2023-03-21T01:21:33;99575.34;;;7.99;86.80
50282;BME280;36176;51.506;10.272;2023-03-21T01:24:00;99570.94;;;7.99;87.42
50282;BME280;36176;51.506;10.272;2023-03-21T01:26:27;99572.75;;;7.97;87.54
50282;BME280;36176;51.506;10.272;2023-03-21T01:28:55;99563.13;;;7.96;88.35
50282;BME280;36176;51.506;10.272;2023-03-21T01:31:21;99560.31;;;8.01;87.90
50282;BME280;36176;51.506;10.272;2023-03-21T01:33:49;99561.06;;;8.04;88.29
50282;BME280;36176;51.506;10.272;2023-03-21T01:36:18;99557.53;;;8.05;88.28
50282;BME280;36176;51.506;10.272;2023-03-21T01:38:50;99557.41;;;8.08;87.62
50282;BME280;36176;51.506;10.272;2023-03-21T01:41:23;99561.66;;;8.13;87.71
50282;BME280;36176;51.506;10.272;2023-03-21T01:44:03;99564.19;;;8.16;87.45
50282;BME280;36176;51.506;10.272;2023-03-21T01:46:43;99567.69;;;8.16;87.55
50282;BME280;36176;51.506;10.272;2023-03-21T01:49:33;99551.13;;;8.13;88.32
50282;BME280;36176;51.506;10.272;2023-03-21T01:52:05;99562.56;;;8.12;87.56
50282;BME280;36176;51.506;10.272;2023-03-21T01:54:42;99554.66;;;8.12;87.51
50282;BME280;36176;51.506;10.272;2023-03-21T01:57:17;99552.94;;;8.10;86.98
50282;BME280;36176;51.506;10.272;2023-03-21T01:59:50;99546.03;;;8.06;86.83
50282;BME280;36176;51.506;10.272;2023-03-21T02:02:22;99543.41;;;8.06;86.49
50282;BME280;36176;51.506;10.272;2023-03-21T02:04:51;99540.75;;;8.06;87.33
50282;BME280;36176;51.506;10.272;2023-03-21T02:07:30;99547.81;;;8.06;86.98
50282;BME280;36176;51.506;10.272;2023-03-21T02:10:04;99546.28;;;8.00;86.80
50282;BME280;36176;51.506;10.272;2023-03-21T02:12:33;99548.91;;;8.00;86.75
50282;BME280;36176;51.506;10.272;2023-03-21T02:15:00;99543.47;;;8.05;86.73
50282;BME280;36176;51.506;10.272;2023-03-21T02:20:23;99537.31;;;8.04;86.85
50282;BME280;36176;51.506;10.272;2023-03-21T02:28:17;99522.53;;;8.00;86.99
50282;BME280;36176;51.506;10.272;2023-03-21T02:31:23;99528.66;;;8.01;87.70
50282;BME280;36176;51.506;10.272;2023-03-21T02:37:09;99522.47;;;8.02;87.45
50282;BME280;36176;51.506;10.272;2023-03-21T02:39:52;99514.50;;;8.03;86.08
50282;BME280;36176;51.506;10.272;2023-03-21T02:42:28;99515.25;;;8.07;86.90
50282;BME280;36176;51.506;10.272;2023-03-21T02:45:04;99517.81;;;8.08;86.78
50282;BME280;36176;51.506;10.272;2023-03-21T02:47:41;99516.97;;;8.08;86.97
50282;BME280;36176;51.506;10.272;2023-03-21T02:50:17;99520.41;;;8.10;86.44
50282;BME280;36176;51.506;10.272;2023-03-21T02:52:47;99514.13;;;8.14;85.85
50282;BME280;36176;51.506;10.272;2023-03-21T02:55:24;99517.53;;;8.16;85.92
50282;BME280;36176;51.506;10.272;2023-03-21T02:57:53;99509.56;;;8.18;86.35
50282;BME280;36176;51.506;10.272;2023-03-21T03:00:25;99513.84;;;8.22;85.74
50282;BME280;36176;51.506;10.272;2023-03-21T03:02:54;99500.56;;;8.23;85.56
50282;BME280;36176;51.506;10.272;2023-03-21T03:05:47;99505.75;;;8.26;85.70
50282;BME280;36176;51.506;10.272;2023-03-21T03:08:41;99508.66;;;8.19;85.21
50282;BME280;36176;51.506;10.272;2023-03-21T03:11:30;99509.53;;;8.19;84.78
50282;BME280;36176;51.506;10.272;2023-03-21T03:17:25;99505.78;;;8.25;85.21
50282;BME280;36176;51.506;10.272;2023-03-21T03:20:12;99510.09;;;8.27;84.61
50282;BME280;36176;51.506;10.272;2023-03-21T03:23:09;99510.22;;;8.24;84.54
50282;BME280;36176;51.506;10.272;2023-03-21T03:25:46;99514.53;;;8.27;84.15
50282;BME280;36176;51.506;10.272;2023-03-21T03:28:20;99511.13;;;8.23;84.15
50282;BME280;36176;51.506;10.272;2023-03-21T03:30:49;99507.63;;;8.23;84.20
50282;BME280;36176;51.506;10.272;2023-03-21T03:33:37;99508.47;;;8.23;83.91
50282;BME280;36176;51.506;10.272;2023-03-21T03:36:09;99496.16;;;8.24;84.02
50282;BME280;36176;51.506;10.272;2023-03-21T03:38:55;99493.53;;;8.24;83.85
50282;BME280;36176;51.506;10.272;2023-03-21T03:41:25;99490.06;;;8.22;83.25
50282;BME280;36176;51.506;10.272;2023-03-21T03:43:58;99492.59;;;8.25;83.16
50282;BME280;36176;51.506;10.272;2023-03-21T03:46:29;99494.31;;;8.26;82.50
50282;BME280;36176;51.506;10.272;2023-03-21T03:49:01;99496.03;;;8.27;82.78
50282;BME280;36176;51.506;10.272;2023-03-21T03:51:51;99503.16;;;8.25;83.23
50282;BME280;36176;51.506;10.272;2023-03-21T03:54:24;99503.28;;;8.22;83.04
50282;BME280;36176;51.506;10.272;2023-03-21T03:56:52;99491.78;;;8.23;83.51
50282;BME280;36176;51.506;10.272;2023-03-21T03:59:19;99493.41;;;8.27;83.59
50282;BME280;36176;51.506;10.272;2023-03-21T04:01:50;99497.75;;;8.28;83.45
50282;BME280;36176;51.506;10.272;2023-03-21T04:04:17;99498.81;;;8.24;83.86
50282;BME280;36176;51.506;10.272;2023-03-21T04:06:48;99495.44;;;8.19;83.56
50282;BME280;36176;51.506;10.272;2023-03-21T04:09:19;99500.72;;;8.19;83.15
50282;BME280;36176;51.506;10.272;2023-03-21T04:11:57;99500.72;;;8.19;84.09
50282;BME280;36176;51.506;10.272;2023-03-21T04:14:24;99500.94;;;8.14;83.67
50282;BME280;36176;51.506;10.272;2023-03-21T04:17:04;99487.00;;;8.09;84.88
50282;BME280;36176;51.506;10.272;2023-03-21T04:19:31;99501.09;;;8.09;84.54
50282;BME280;36176;51.506;10.272;2023-03-21T04:21:58;99502.75;;;8.12;84.46
50282;BME280;36176;51.506;10.272;2023-03-21T04:24:25;99503.50;;;8.16;84.45
50282;BME280;36176;51.506;10.272;2023-03-21T04:26:52;99500.81;;;8.17;84.67
50282;BME280;36176;51.506;10.272;2023-03-21T04:29:19;99500.94;;;8.14;84.69
50282;BME280;36176;51.506;10.272;2023-03-21T04:31:46;99502.69;;;8.14;84.40
50282;BME280;36176;51.506;10.272;2023-03-21T04:34:15;99498.28;;;8.14;84.63
50282;BME280;36176;51.506;10.272;2023-03-21T04:36:42;99499.81;;;8.20;84.72
50282;BME280;36176;51.506;10.272;2023-03-21T04:39:13;99491.88;;;8.21;84.95
50282;BME280;36176;51.506;10.272;2023-03-21T04:41:42;99493.53;;;8.24;84.42
50282;BME280;36176;51.506;10.272;2023-03-21T04:44:11;99485.44;;;8.28;84.69
50282;BME280;36176;51.506;10.272;2023-03-21T04:46:39;99489.75;;;8.31;85.08
50282;BME280;36176;51.506;10.272;2023-03-21T04:49:06;99487.88;;;8.33;84.68
50282;BME280;36176;51.506;10.272;2023-03-21T04:51:34;99493.16;;;8.33;85.01
50282;BME280;36176;51.506;10.272;2023-03-21T04:54:02;99492.31;;;8.32;85.36
50282;BME280;36176;51.506;10.272;2023-03-21T04:56:29;99485.50;;;8.27;85.32
50282;BME280;36176;51.506;10.272;2023-03-21T04:58:59;99492.72;;;8.22;85.92
50282;BME280;36176;51.506;10.272;2023-03-21T05:01:26;99485.78;;;8.19;86.31
50282;BME280;36176;51.506;10.272;2023-03-21T05:03:57;99493.75;;;8.18;87.11
50282;BME280;36176;51.506;10.272;2023-03-21T05:06:25;99486.81;;;8.15;87.10
50282;BME280;36176;51.506;10.272;2023-03-21T05:08:54;99483.31;;;8.15;87.04
50282;BME280;36176;51.506;10.272;2023-03-21T05:11:31;99487.78;;;8.13;87.21
50282;BME280;36176;51.506;10.272;2023-03-21T05:13:59;99483.47;;;8.10;87.58
50282;BME280;36176;51.506;10.272;2023-03-21T05:16:26;99486.13;;;8.10;87.72
50282;BME280;36176;51.506;10.272;2023-03-21T05:18:57;99484.44;;;8.07;87.79
50282;BME280;36176;51.506;10.272;2023-03-21T05:21:25;99485.44;;;8.05;88.09
50282;BME280;36176;51.506;10.272;2023-03-21T05:23:55;99489.81;;;8.04;88.25
50282;BME280;36176;51.506;10.272;2023-03-21T05:26:24;99493.22;;;8.08;87.93
50282;BME280;36176;51.506;10.272;2023-03-21T05:28:52;99494.94;;;8.09;87.81
50282;BME280;36176;51.506;10.272;2023-03-21T05:31:19;99495.06;;;8.06;88.45
50282;BME280;36176;51.506;10.272;2023-03-21T05:33:47;99491.69;;;8.02;89.04
50282;BME280;36176;51.506;10.272;2023-03-21T05:36:14;99490.00;;;8.00;89.13
50282;BME280;36176;51.506;10.272;2023-03-21T05:38:41;99492.56;;;8.01;89.53
50282;BME280;36176;51.506;10.272;2023-03-21T05:41:12;99496.97;;;8.02;89.40
50282;BME280;36176;51.506;10.272;2023-03-21T05:43:40;99495.06;;;8.06;89.69
50282;BME280;36176;51.506;10.272;2023-03-21T05:46:07;99488.88;;;8.07;90.58
50282;BME280;36176;51.506;10.272;2023-03-21T05:48:34;99486.28;;;8.05;90.32
50282;BME280;36176;51.506;10.272;2023-03-21T05:51:02;99484.66;;;8.01;91.02
50282;BME280;36176;51.506;10.272;2023-03-21T05:53:29;99483.16;;;7.94;91.41
50282;BME280;36176;51.506;10.272;2023-03-21T05:55:56;99484.19;;;7.90;92.30
50282;BME280;36176;51.506;10.272;2023-03-21T05:58:23;99483.28;;;7.91;92.33
50282;BME280;36176;51.506;10.272;2023-03-21T06:00:50;99485.00;;;7.92;92.97
50282;BME280;36176;51.506;10.272;2023-03-21T06:03:17;99484.00;;;7.95;92.95
50282;BME280;36176;51.506;10.272;2023-03-21T06:05:44;99479.50;;;7.98;93.18
50282;BME280;36176;51.506;10.272;2023-03-21T06:08:11;99483.69;;;8.04;93.16
50282;BME280;36176;51.506;10.272;2023-03-21T06:10:38;99476.41;;;8.10;93.37
50282;BME280;36176;51.506;10.272;2023-03-21T06:13:05;99487.81;;;8.11;93.37
50282;BME280;36176;51.506;10.272;2023-03-21T06:15:32;99490.41;;;8.13;92.99
50282;BME280;36176;51.506;10.272;2023-03-21T06:17:59;99481.53;;;8.15;92.72
50282;BME280;36176;51.506;10.272;2023-03-21T06:20:26;99484.13;;;8.17;92.72
50282;BME280;36176;51.506;10.272;2023-03-21T06:22:53;99481.19;;;8.24;92.73
50282;BME280;36176;51.506;10.272;2023-03-21T06:25:20;99482.81;;;8.28;92.39
50282;BME280;36176;51.506;10.272;2023-03-21T06:27:47;99472.13;;;8.31;92.47
50282;BME280;36176;51.506;10.272;2023-03-21T06:30:14;99471.09;;;8.36;91.82
50282;BME280;36176;51.506;10.272;2023-03-21T06:32:41;99469.97;;;8.43;92.33
50282;BME280;36176;51.506;10.272;2023-03-21T06:35:08;99469.66;;;8.50;91.28
50282;BME280;36176;51.506;10.272;2023-03-21T06:37:35;99466.38;;;8.67;91.29
50282;BME280;36176;51.506;10.272;2023-03-21T06:40:03;99467.47;;;8.84;90.40
50282;BME280;36176;51.506;10.272;2023-03-21T06:42:31;99466.19;;;8.94;89.73
50282;BME280;36176;51.506;10.272;2023-03-21T06:44:58;99464.97;;;9.03;89.42
50282;BME280;36176;51.506;10.272;2023-03-21T06:47:25;99466.94;;;9.18;88.92
50282;BME280;36176;51.506;10.272;2023-03-21T06:49:52;99467.25;;;9.32;87.85
50282;BME280;36176;51.506;10.272;2023-03-21T06:52:19;99470.16;;;9.47;86.67
50282;BME280;36176;51.506;10.272;2023-03-21T06:54:46;99473.22;;;9.58;86.04
50282;BME280;36176;51.506;10.272;2023-03-21T06:57:13;99472.72;;;9.69;84.42
50282;BME280;36176;51.506;10.272;2023-03-21T06:59:40;99480.03;;;9.84;84.34
50282;BME280;36176;51.506;10.272;2023-03-21T07:02:10;99478.81;;;10.10;82.39
50282;BME280;36176;51.506;10.272;2023-03-21T07:04:37;99475.06;;;10.16;80.97
50282;BME280;36176;51.506;10.272;2023-03-21T07:07:04;99474.84;;;10.20;81.71
50282;BME280;36176;51.506;10.272;2023-03-21T07:09:31;99479.63;;;10.33;81.57
50282;BME280;36176;51.506;10.272;2023-03-21T07:11:58;99477.34;;;10.44;81.51
50282;BME280;36176;51.506;10.272;2023-03-21T07:14:25;99480.06;;;10.42;80.77
50282;BME280;36176;51.506;10.272;2023-03-21T07:16:52;99479.56;;;10.34;80.14
50282;BME280;36176;51.506;10.272;2023-03-21T07:19:19;99481.06;;;10.19;80.22
50282;BME280;36176;51.506;10.272;2023-03-21T07:21:46;99488.38;;;10.14;79.90
50282;BME280;36176;51.506;10.272;2023-03-21T07:24:13;99476.56;;;10.21;80.10
50282;BME280;36176;51.506;10.272;2023-03-21T07:26:40;99476.25;;;10.29;79.91
50282;BME280;36176;51.506;10.272;2023-03-21T07:29:07;99472.47;;;10.35;80.00
50282;BME280;36176;51.506;10.272;2023-03-21T07:31:34;99482.63;;;10.44;80.39
50282;BME280;36176;51.506;10.272;2023-03-21T07:34:02;99479.69;;;10.50;79.97
50282;BME280;36176;51.506;10.272;2023-03-21T07:36:29;99477.19;;;10.47;79.42
50282;BME280;36176;51.506;10.272;2023-03-21T07:38:56;99485.78;;;10.52;78.73
50282;BME280;36176;51.506;10.272;2023-03-21T07:41:23;99483.72;;;10.40;78.20
50282;BME280;36176;51.506;10.272;2023-03-21T07:43:50;99486.41;;;10.38;78.66
50282;BME280;36176;51.506;10.272;2023-03-21T07:46:17;99483.13;;;10.33;77.96
50282;BME280;36176;51.506;10.272;2023-03-21T07:48:44;99481.06;;;10.19;77.01
50282;BME280;36176;51.506;10.272;2023-03-21T07:51:11;99482.66;;;10.23;77.64
50282;BME280;36176;51.506;10.272;2023-03-21T07:53:38;99482.66;;;10.23;77.13
50282;BME280;36176;51.506;10.272;2023-03-21T07:56:07;99484.34;;;10.25;77.01
50282;BME280;36176;51.506;10.272;2023-03-21T07:58:34;99487.25;;;10.20;77.28
50282;BME280;36176;51.506;10.272;2023-03-21T08:01:02;99481.31;;;10.34;78.25
50282;BME280;36176;51.506;10.272;2023-03-21T08:03:29;99486.28;;;10.41;78.13
50282;BME280;36176;51.506;10.272;2023-03-21T08:05:59;99493.25;;;10.44;78.00
50282;BME280;36176;51.506;10.272;2023-03-21T08:08:27;99483.28;;;10.49;77.71
50282;BME280;36176;51.506;10.272;2023-03-21T08:10:54;99485.84;;;10.51;77.24
50282;BME280;36176;51.506;10.272;2023-03-21T08:13:20;99484.94;;;10.52;77.39
50282;BME280;36176;51.506;10.272;2023-03-21T08:15:48;99479.06;;;10.45;77.28
50282;BME280;36176;51.506;10.272;2023-03-21T08:18:15;99480.69;;;10.48;77.56
50282;BME280;36176;51.506;10.272;2023-03-21T08:20:42;99486.56;;;10.54;77.02
50282;BME280;36176;51.506;10.272;2023-03-21T08:23:09;99476.03;;;10.53;76.90
50282;BME280;36176;51.506;10.272;2023-03-21T08:25:36;99470.53;;;10.57;76.49
50282;BME280;36176;51.506;10.272;2023-03-21T08:28:04;99479.00;;;10.47;76.69
50282;BME280;36176;51.506;10.272;2023-03-21T08:30:31;99474.13;;;10.37;78.06
50282;BME280;36176;51.506;10.272;2023-03-21T08:32:59;99475.69;;;10.41;77.85
50282;BME280;36176;51.506;10.272;2023-03-21T08:35:28;99470.09;;;10.48;77.31
50282;BME280;36176;51.506;10.272;2023-03-21T08:37:55;99469.53;;;10.60;77.04
50282;BME280;36176;51.506;10.272;2023-03-21T08:40:23;99463.31;;;10.97;77.20
50282;BME280;36176;51.506;10.272;2023-03-21T08:42:50;99467.78;;;11.32;75.56
50282;BME280;36176;51.506;10.272;2023-03-21T08:45:17;99470.38;;;11.68;75.43
50282;BME280;36176;51.506;10.272;2023-03-21T08:47:45;99468.97;;;11.96;73.39
50282;BME280;36176;51.506;10.272;2023-03-21T08:50:18;99470.06;;;12.25;71.64
50282;BME280;36176;51.506;10.272;2023-03-21T08:52:46;99464.94;;;12.38;70.78
50282;BME280;36176;51.506;10.272;2023-03-21T08:55:15;99468.97;;;12.45;69.77
50282;BME280;36176;51.506;10.272;2023-03-21T08:57:43;99472.41;;;12.63;71.48
50282;BME280;36176;51.506;10.272;2023-03-21T09:00:14;99468.75;;;12.81;70.97
50282;BME280;36176;51.506;10.272;2023-03-21T09:02:47;99469.34;;;12.86;67.00
50282;BME280;36176;51.506;10.272;2023-03-21T09:05:15;99477.56;;;12.82;68.73
50282;BME280;36176;51.506;10.272;2023-03-21T09:07:43;99475.59;;;12.69;67.62
50282;BME280;36176;51.506;10.272;2023-03-21T09:10:16;99472.84;;;12.55;65.91
50282;BME280;36176;51.506;10.272;2023-03-21T09:12:49;99464.59;;;12.44;67.63
50282;BME280;36176;51.506;10.272;2023-03-21T09:15:17;99462.28;;;12.38;67.65
50282;BME280;36176;51.506;10.272;2023-03-21T09:17:46;99465.94;;;12.35;67.67
50282;BME280;36176;51.506;10.272;2023-03-21T09:20:20;99465.63;;;12.41;67.95
50282;BME280;36176;51.506;10.272;2023-03-21T09:22:51;99456.38;;;12.48;66.81
50282;BME280;36176;51.506;10.272;2023-03-21T09:25:19;99456.97;;;12.53;68.11
50282;BME280;36176;51.506;10.272;2023-03-21T09:27:47;99458.19;;;12.80;67.88
50282;BME280;36176;51.506;10.272;2023-03-21T09:30:17;99458.66;;;13.02;66.02
50282;BME280;36176;51.506;10.272;2023-03-21T09:32:45;99466.13;;;13.27;65.47
50282;BME280;36176;51.506;10.272;2023-03-21T09:35:15;99466.31;;;13.69;66.06
50282;BME280;36176;51.506;10.272;2023-03-21T09:37:45;99453.06;;;14.12;63.72
50282;BME280;36176;51.506;10.272;2023-03-21T09:40:26;99461.03;;;14.26;62.22
50282;BME280;36176;51.506;10.272;2023-03-21T09:46:06;99457.22;;;14.44;62.84
50282;BME280;36176;51.506;10.272;2023-03-21T09:48:49;99462.56;;;14.59;62.33
50282;BME280;36176;51.506;10.272;2023-03-21T09:51:31;99457.53;;;14.54;61.25
50282;BME280;36176;51.506;10.272;2023-03-21T09:54:06;99455.78;;;14.53;60.06
50282;BME280;36176;51.506;10.272;2023-03-21T09:56:35;99452.66;;;14.46;60.37
50282;BME280;36176;51.506;10.272;2023-03-21T09:59:05;99452.66;;;14.46;60.27
50282;BME280;36176;51.506;10.272;2023-03-21T10:01:34;99447.09;;;14.78;60.42
50282;BME280;36176;51.506;10.272;2023-03-21T10:04:11;99449.22;;;15.00;59.91
50282;BME280;36176;51.506;10.272;2023-03-21T10:06:43;99449.25;;;15.53;58.28
50282;BME280;36176;51.506;10.272;2023-03-21T10:16:52;99433.88;;;15.69;56.22
50282;BME280;36176;51.506;10.272;2023-03-21T10:19:22;99436.28;;;15.74;57.16
50282;BME280;36176;51.506;10.272;2023-03-21T10:21:50;99434.56;;;15.86;57.21
50282;BME280;36176;51.506;10.272;2023-03-21T10:24:32;99430.38;;;15.94;57.62
50282;BME280;36176;51.506;10.272;2023-03-21T10:27:00;99434.34;;;16.14;57.08
50282;BME280;36176;51.506;10.272;2023-03-21T10:29:30;99426.63;;;16.23;56.12
50282;BME280;36176;51.506;10.272;2023-03-21T10:31:57;99421.81;;;16.28;55.57
50282;BME280;36176;51.506;10.272;2023-03-21T10:34:38;99423.63;;;16.40;51.94
50282;BME280;36176;51.506;10.272;2023-03-21T10:37:07;99420.72;;;16.30;54.82
50282;BME280;36176;51.506;10.272;2023-03-21T10:39:36;99408.56;;;16.13;54.29
50282;BME280;36176;51.506;10.272;2023-03-21T10:42:20;99412.09;;;16.27;54.73
50282;BME280;36176;51.506;10.272;2023-03-21T10:44:50;99408.84;;;16.34;54.09
50282;BME280;36176;51.506;10.272;2023-03-21T10:47:21;99401.47;;;16.38;53.36
50282;BME280;36176;51.506;10.272;2023-03-21T10:49:50;99404.41;;;16.22;54.93
50282;BME280;36176;51.506;10.272;2023-03-21T10:52:33;99405.91;;;16.26;56.46
50282;BME280;36176;51.506;10.272;2023-03-21T10:55:20;99404.81;;;16.16;54.66
50282;BME280;36176;51.506;10.272;2023-03-21T10:57:52;99399.84;;;15.86;55.02
50282;BME280;36176;51.506;10.272;2023-03-21T11:00:20;99401.56;;;15.74;56.17
50282;BME280;36176;51.506;10.272;2023-03-21T11:02:49;99389.97;;;15.61;57.47
50282;BME280;36176;51.506;10.272;2023-03-21T11:05:21;99389.00;;;15.49;57.26
50282;BME280;36176;51.506;10.272;2023-03-21T11:07:57;99399.47;;;15.65;56.71
50282;BME280;36176;51.506;10.272;2023-03-21T11:10:26;99392.09;;;15.43;57.96
50282;BME280;36176;51.506;10.272;2023-03-21T11:12:55;99387.06;;;15.25;57.67
50282;BME280;36176;51.506;10.272;2023-03-21T11:15:30;99383.19;;;15.04;59.10
50282;BME280;36176;51.506;10.272;2023-03-21T11:17:58;99391.03;;;14.93;59.17
50282;BME280;36176;51.506;10.272;2023-03-21T11:20:28;99393.91;;;14.89;58.27
50282;BME280;36176;51.506;10.272;2023-03-21T11:22:55;99387.44;;;14.79;58.87
50282;BME280;36176;51.506;10.272;2023-03-21T11:25:35;99386.97;;;14.87;59.19
50282;BME280;36176;51.506;10.272;2023-03-21T11:28:04;99391.03;;;14.93;59.05
50282;BME280;36176;51.506;10.272;2023-03-21T11:30:32;99381.19;;;14.80;58.84
50282;BME280;36176;51.506;10.272;2023-03-21T11:33:00;99384.69;;;14.81;59.56
50282;BME280;36176;51.506;10.272;2023-03-21T11:35:33;99377.69;;;14.93;59.40
50282;BME280;36176;51.506;10.272;2023-03-21T11:38:01;99374.28;;;14.91;59.16
50282;BME280;36176;51.506;10.272;2023-03-21T11:40:32;99377.78;;;14.91;59.63
50282;BME280;36176;51.506;10.272;2023-03-21T11:43:05;99377.72;;;15.05;58.68
50282;BME280;36176;51.506;10.272;2023-03-21T11:48:24;99373.81;;;15.11;59.06
50282;BME280;36176;51.506;10.272;2023-03-21T11:50:55;99365.81;;;15.24;58.99
50282;BME280;36176;51.506;10.272;2023-03-21T11:53:29;99367.19;;;15.17;59.94
50282;BME280;36176;51.506;10.272;2023-03-21T11:56:08;99362.69;;;15.04;59.30
50282;BME280;36176;51.506;10.272;2023-03-21T11:58:45;99359.84;;;14.80;58.91
50282;BME280;36176;51.506;10.272;2023-03-21T12:01:17;99363.09;;;14.44;60.90
50282;BME280;36176;51.506;10.272;2023-03-21T12:03:54;99360.81;;;14.38;60.74
50282;BME280;36176;51.506;10.272;2023-03-21T12:06:27;99350.66;;;14.30;61.56
50282;BME280;36176;51.506;10.272;2023-03-21T12:09:05;99354.06;;;14.32;61.34
50282;BME280;36176;51.506;10.272;2023-03-21T12:14:35;99349.16;;;14.39;61.59
50282;BME280;36176;51.506;10.272;2023-03-21T12:20:05;99351.66;;;14.42;60.99
50282;BME280;36176;51.506;10.272;2023-03-21T12:23:00;99339.56;;;14.36;62.31
50282;BME280;36176;51.506;10.272;2023-03-21T12:25:34;99342.44;;;14.33;61.98
50282;BME280;36176;51.506;10.272;2023-03-21T12:34:11;99338.63;;;13.96;62.99
50282;BME280;36176;51.506;10.272;2023-03-21T12:37:12;99335.00;;;13.82;63.58
50282;BME280;36176;51.506;10.272;2023-03-21T12:39:45;99333.97;;;13.71;63.90
50282;BME280;36176;51.506;10.272;2023-03-21T12:42:45;99321.63;;;13.55;64.82
50282;BME280;36176;51.506;10.272;2023-03-21T12:45:21;99324.44;;;13.38;65.23
50282;BME280;36176;51.506;10.272;2023-03-21T12:47:53;99328.16;;;13.35;65.14
50282;BME280;36176;51.506;10.272;2023-03-21T12:50:26;99328.25;;;13.34;65.31
50282;BME280;36176;51.506;10.272;2023-03-21T12:52:58;99327.66;;;13.29;65.59
50282;BME280;36176;51.506;10.272;2023-03-21T12:55:33;99332.13;;;13.28;65.09
50282;BME280;36176;51.506;10.272;2023-03-21T12:58:21;99328.94;;;13.22;65.07
50282;BME280;36176;51.506;10.272;2023-03-21T13:00:57;99330.38;;;13.13;66.90
50282;BME280;36176;51.506;10.272;2023-03-21T13:03:35;99327.41;;;13.03;66.30
50282;BME280;36176;51.506;10.272;2023-03-21T13:06:09;99324.44;;;12.93;66.92
50282;BME280;36176;51.506;10.272;2023-03-21T13:11:11;99318.59;;;13.03;66.80
50282;BME280;36176;51.506;10.272;2023-03-21T13:16:40;99315.66;;;13.07;67.08
50282;BME280;36176;51.506;10.272;2023-03-21T13:19:27;99308.78;;;13.03;66.11
50282;BME280;36176;51.506;10.272;2023-03-21T13:22:12;99309.19;;;13.11;66.00
50282;BME280;36176;51.506;10.272;2023-03-21T13:27:33;99303.47;;;13.03;66.25
50282;BME280;36176;51.506;10.272;2023-03-21T13:33:04;99304.41;;;13.02;65.93
50282;BME280;36176;51.506;10.272;2023-03-21T13:35:37;99296.88;;;12.94;66.28
50282;BME280;36176;51.506;10.272;2023-03-21T13:38:19;99301.06;;;12.84;66.36
50282;BME280;36176;51.506;10.272;2023-03-21T13:40:56;99303.63;;;12.86;66.89
50282;BME280;36176;51.506;10.272;2023-03-21T13:49:00;99297.34;;;12.87;69.06
50282;BME280;36176;51.506;10.272;2023-03-21T13:59:17;99291.09;;;13.02;68.88
50282;BME280;36176;51.506;10.272;2023-03-21T14:04:29;99289.19;;;12.90;69.27
50282;BME280;36176;51.506;10.272;2023-03-21T14:09:59;99275.66;;;12.64;70.42
50282;BME280;36176;51.506;10.272;2023-03-21T14:12:36;99275.88;;;12.45;72.82
50282;BME280;36176;51.506;10.272;2023-03-21T14:15:13;99279.19;;;12.49;73.80
50282;BME280;36176;51.506;10.272;2023-03-21T14:18:01;99269.66;;;12.45;75.06
50282;BME280;36176;51.506;10.272;2023-03-21T14:20:57;99273.28;;;12.44;74.69
50282;BME280;36176;51.506;10.272;2023-03-21T14:23:24;99265.78;;;12.36;75.62
50282;BME280;36176;51.506;10.272;2023-03-21T14:25:51;99269.88;;;12.26;75.71
50282;BME280;36176;51.506;10.272;2023-03-21T14:28:27;99266.75;;;12.19;76.66